sensor_id;sensor_type;location;lat;lon;timestamp;P1;durP1;ratioP1;P2;durP2;ratioP2
21868;SDS011;11099;41.564;23.296;2023-06-14T00:01:49;7.40;;;3.58;;
21868;SDS011;11099;41.564;23.296;2023-06-14T00:04:15;7.15;;;3.58;;
21868;SDS011;11099;41.564;23.296;2023-06-14T00:06:45;3.80;;;3.40;;
21868;SDS011;11099;41.564;23.296;2023-06-14T00:09:12;4.13;;;3.70;;
21868;SDS011;11099;41.564;23.296;2023-06-14T00:11:42;6.78;;;3.35;;
21868;SDS011;11099;41.564;23.296;2023-06-14T00:14:08;3.90;;;3.60;;
21868;SDS011;11099;41.564;23.296;2023-06-14T00:16:34;4.13;;;3.83;;
21868;SDS011;11099;41.564;23.296;2023-06-14T00:19:02;8.52;;;4.30;;
21868;SDS011;11099;41.564;23.296;2023-06-14T00:21:31;4.38;;;4.05;;
21868;SDS011;11099;41.564;23.296;2023-06-14T00:23:57;4.22;;;3.80;;
21868;SDS011;11099;41.564;23.296;2023-06-14T00:26:23;5.95;;;3.40;;
21868;SDS011;11099;41.564;23.296;2023-06-14T00:28:51;3.65;;;3.33;;
21868;SDS011;11099;41.564;23.296;2023-06-14T00:31:17;3.75;;;3.20;;
21868;SDS011;11099;41.564;23.296;2023-06-14T00:33:42;3.83;;;3.40;;
21868;SDS011;11099;41.564;23.296;2023-06-14T00:36:08;3.92;;;3.53;;
21868;SDS011;11099;41.564;23.296;2023-06-14T00:38:33;4.05;;;3.47;;
21868;SDS011;11099;41.564;23.296;2023-06-14T00:40:59;3.60;;;3.40;;
21868;SDS011;11099;41.564;23.296;2023-06-14T00:43:25;5.05;;;3.88;;
21868;SDS011;11099;41.564;23.296;2023-06-14T00:45:50;4.90;;;3.58;;
21868;SDS011;11099;41.564;23.296;2023-06-14T00:48:16;7.15;;;4.93;;
21868;SDS011;11099;41.564;23.296;2023-06-14T00:50:42;6.97;;;4.82;;
21868;SDS011;11099;41.564;23.296;2023-06-14T00:53:11;5.10;;;4.57;;
21868;SDS011;11099;41.564;23.296;2023-06-14T00:55:40;5.57;;;4.80;;
21868;SDS011;11099;41.564;23.296;2023-06-14T00:58:06;5.78;;;4.43;;
21868;SDS011;11099;41.564;23.296;2023-06-14T01:00:32;5.07;;;4.70;;
21868;SDS011;11099;41.564;23.296;2023-06-14T01:02:58;5.03;;;4.63;;
21868;SDS011;11099;41.564;23.296;2023-06-14T01:05:23;5.93;;;5.03;;
21868;SDS011;11099;41.564;23.296;2023-06-14T01:10:47;6.63;;;5.95;;
21868;SDS011;11099;41.564;23.296;2023-06-14T01:16:00;6.53;;;5.93;;
21868;SDS011;11099;41.564;23.296;2023-06-14T01:18:27;7.57;;;5.07;;
21868;SDS011;11099;41.564;23.296;2023-06-14T01:20:54;8.53;;;5.77;;
21868;SDS011;11099;41.564;23.296;2023-06-14T01:23:21;6.57;;;6.00;;
21868;SDS011;11099;41.564;23.296;2023-06-14T01:25:48;7.85;;;6.82;;
21868;SDS011;11099;41.564;23.296;2023-06-14T01:28:18;8.30;;;6.25;;
21868;SDS011;11099;41.564;23.296;2023-06-14T01:30:46;6.15;;;4.88;;
21868;SDS011;11099;41.564;23.296;2023-06-14T01:33:23;5.60;;;4.78;;
21868;SDS011;11099;41.564;23.296;2023-06-14T01:35:51;4.80;;;4.20;;
21868;SDS011;11099;41.564;23.296;2023-06-14T01:38:19;6.75;;;4.50;;
21868;SDS011;11099;41.564;23.296;2023-06-14T01:43:13;5.93;;;5.30;;
21868;SDS011;11099;41.564;23.296;2023-06-14T01:45:40;6.07;;;5.45;;
21868;SDS011;11099;41.564;23.296;2023-06-14T01:48:07;6.50;;;5.43;;
21868;SDS011;11099;41.564;23.296;2023-06-14T01:50:33;6.53;;;5.90;;
21868;SDS011;11099;41.564;23.296;2023-06-14T01:52:59;7.93;;;5.70;;
21868;SDS011;11099;41.564;23.296;2023-06-14T01:55:25;6.45;;;5.95;;
21868;SDS011;11099;41.564;23.296;2023-06-14T01:57:51;7.90;;;6.03;;
21868;SDS011;11099;41.564;23.296;2023-06-14T02:00:17;8.05;;;4.72;;
21868;SDS011;11099;41.564;23.296;2023-06-14T02:02:43;5.07;;;4.68;;
21868;SDS011;11099;41.564;23.296;2023-06-14T02:05:09;8.18;;;4.47;;
21868;SDS011;11099;41.564;23.296;2023-06-14T02:07:35;5.10;;;4.10;;
21868;SDS011;11099;41.564;23.296;2023-06-14T02:10:01;4.97;;;4.57;;
21868;SDS011;11099;41.564;23.296;2023-06-14T02:12:27;4.80;;;4.40;;
21868;SDS011;11099;41.564;23.296;2023-06-14T02:14:53;6.45;;;5.03;;
21868;SDS011;11099;41.564;23.296;2023-06-14T02:17:19;4.93;;;4.57;;
21868;SDS011;11099;41.564;23.296;2023-06-14T02:19:45;4.95;;;4.43;;
21868;SDS011;11099;41.564;23.296;2023-06-14T02:22:11;4.22;;;4.00;;
21868;SDS011;11099;41.564;23.296;2023-06-14T02:24:37;4.90;;;4.43;;
21868;SDS011;11099;41.564;23.296;2023-06-14T02:27:02;4.95;;;4.65;;
21868;SDS011;11099;41.564;23.296;2023-06-14T02:29:28;4.97;;;4.57;;
21868;SDS011;11099;41.564;23.296;2023-06-14T02:31:54;8.45;;;5.22;;
21868;SDS011;11099;41.564;23.296;2023-06-14T02:34:19;5.15;;;4.60;;
21868;SDS011;11099;41.564;23.296;2023-06-14T02:36:46;5.43;;;4.45;;
21868;SDS011;11099;41.564;23.296;2023-06-14T02:39:13;6.15;;;4.90;;
21868;SDS011;11099;41.564;23.296;2023-06-14T02:41:38;5.40;;;4.88;;
21868;SDS011;11099;41.564;23.296;2023-06-14T02:44:04;7.88;;;5.93;;
21868;SDS011;11099;41.564;23.296;2023-06-14T02:46:30;6.03;;;5.43;;
21868;SDS011;11099;41.564;23.296;2023-06-14T02:48:55;7.00;;;4.82;;
21868;SDS011;11099;41.564;23.296;2023-06-14T02:51:21;5.53;;;5.05;;
21868;SDS011;11099;41.564;23.296;2023-06-14T02:53:47;7.35;;;5.10;;
21868;SDS011;11099;41.564;23.296;2023-06-14T02:56:12;6.70;;;4.80;;
21868;SDS011;11099;41.564;23.296;2023-06-14T02:58:38;10.80;;;5.03;;
21868;SDS011;11099;41.564;23.296;2023-06-14T03:01:07;5.47;;;4.40;;
21868;SDS011;11099;41.564;23.296;2023-06-14T03:03:33;8.43;;;5.90;;
21868;SDS011;11099;41.564;23.296;2023-06-14T03:05:59;6.53;;;5.60;;
21868;SDS011;11099;41.564;23.296;2023-06-14T03:08:29;5.65;;;5.13;;
21868;SDS011;11099;41.564;23.296;2023-06-14T03:10:55;5.70;;;5.20;;
21868;SDS011;11099;41.564;23.296;2023-06-14T03:13:21;5.43;;;5.03;;
21868;SDS011;11099;41.564;23.296;2023-06-14T03:15:47;8.80;;;6.00;;
21868;SDS011;11099;41.564;23.296;2023-06-14T03:18:14;6.03;;;5.55;;
21868;SDS011;11099;41.564;23.296;2023-06-14T03:20:40;8.23;;;6.45;;
21868;SDS011;11099;41.564;23.296;2023-06-14T03:23:07;7.90;;;6.95;;
21868;SDS011;11099;41.564;23.296;2023-06-14T03:25:33;10.85;;;7.60;;
21868;SDS011;11099;41.564;23.296;2023-06-14T03:28:00;8.13;;;7.13;;
21868;SDS011;11099;41.564;23.296;2023-06-14T03:32:55;9.55;;;7.80;;
21868;SDS011;11099;41.564;23.296;2023-06-14T03:35:21;10.23;;;6.70;;
21868;SDS011;11099;41.564;23.296;2023-06-14T03:37:47;8.73;;;7.05;;
21868;SDS011;11099;41.564;23.296;2023-06-14T03:40:13;8.85;;;7.45;;
21868;SDS011;11099;41.564;23.296;2023-06-14T03:42:40;9.95;;;7.00;;
21868;SDS011;11099;41.564;23.296;2023-06-14T03:45:06;6.97;;;6.30;;
21868;SDS011;11099;41.564;23.296;2023-06-14T03:47:32;7.40;;;6.57;;
21868;SDS011;11099;41.564;23.296;2023-06-14T03:49:58;7.60;;;6.60;;
21868;SDS011;11099;41.564;23.296;2023-06-14T03:52:25;6.80;;;6.22;;
21868;SDS011;11099;41.564;23.296;2023-06-14T03:54:51;13.02;;;6.25;;
21868;SDS011;11099;41.564;23.296;2023-06-14T03:57:16;9.10;;;6.53;;
21868;SDS011;11099;41.564;23.296;2023-06-14T03:59:42;6.20;;;5.60;;
21868;SDS011;11099;41.564;23.296;2023-06-14T04:02:08;6.78;;;5.22;;
21868;SDS011;11099;41.564;23.296;2023-06-14T04:04:36;5.40;;;4.90;;
21868;SDS011;11099;41.564;23.296;2023-06-14T04:07:02;5.55;;;5.05;;
21868;SDS011;11099;41.564;23.296;2023-06-14T04:09:31;12.15;;;5.30;;
21868;SDS011;11099;41.564;23.296;2023-06-14T04:11:57;11.15;;;5.53;;
21868;SDS011;11099;41.564;23.296;2023-06-14T04:14:22;7.10;;;5.85;;
21868;SDS011;11099;41.564;23.296;2023-06-14T04:16:48;7.88;;;5.68;;
21868;SDS011;11099;41.564;23.296;2023-06-14T04:19:15;7.18;;;6.47;;
21868;SDS011;11099;41.564;23.296;2023-06-14T04:21:41;13.85;;;5.97;;
21868;SDS011;11099;41.564;23.296;2023-06-14T04:24:07;8.73;;;6.30;;
21868;SDS011;11099;41.564;23.296;2023-06-14T04:26:38;6.25;;;5.65;;
21868;SDS011;11099;41.564;23.296;2023-06-14T04:29:04;10.38;;;6.00;;
21868;SDS011;11099;41.564;23.296;2023-06-14T04:31:30;12.52;;;7.07;;
21868;SDS011;11099;41.564;23.296;2023-06-14T04:33:59;5.88;;;5.10;;
21868;SDS011;11099;41.564;23.296;2023-06-14T04:36:25;6.45;;;5.38;;
21868;SDS011;11099;41.564;23.296;2023-06-14T04:38:53;13.07;;;4.95;;
21868;SDS011;11099;41.564;23.296;2023-06-14T04:41:22;9.05;;;5.50;;
21868;SDS011;11099;41.564;23.296;2023-06-14T04:43:53;8.63;;;5.63;;
21868;SDS011;11099;41.564;23.296;2023-06-14T04:46:19;6.45;;;5.43;;
21868;SDS011;11099;41.564;23.296;2023-06-14T04:48:45;10.35;;;5.20;;
21868;SDS011;11099;41.564;23.296;2023-06-14T04:51:11;6.18;;;5.20;;
21868;SDS011;11099;41.564;23.296;2023-06-14T04:53:38;5.95;;;4.65;;
21868;SDS011;11099;41.564;23.296;2023-06-14T04:56:03;7.32;;;4.82;;
21868;SDS011;11099;41.564;23.296;2023-06-14T04:58:29;6.65;;;5.22;;
21868;SDS011;11099;41.564;23.296;2023-06-14T05:00:55;5.97;;;5.35;;
21868;SDS011;11099;41.564;23.296;2023-06-14T05:03:23;8.65;;;5.35;;
21868;SDS011;11099;41.564;23.296;2023-06-14T05:05:49;5.43;;;4.93;;
21868;SDS011;11099;41.564;23.296;2023-06-14T05:08:15;6.57;;;5.13;;
21868;SDS011;11099;41.564;23.296;2023-06-14T05:10:41;6.07;;;5.25;;
21868;SDS011;11099;41.564;23.296;2023-06-14T05:13:07;7.20;;;5.38;;
21868;SDS011;11099;41.564;23.296;2023-06-14T05:15:32;7.22;;;5.75;;
21868;SDS011;11099;41.564;23.296;2023-06-14T05:17:59;8.55;;;5.40;;
21868;SDS011;11099;41.564;23.296;2023-06-14T05:20:24;9.60;;;5.82;;
21868;SDS011;11099;41.564;23.296;2023-06-14T05:22:52;6.40;;;5.80;;
21868;SDS011;11099;41.564;23.296;2023-06-14T05:25:19;9.98;;;6.30;;
21868;SDS011;11099;41.564;23.296;2023-06-14T05:27:45;12.27;;;6.03;;
21868;SDS011;11099;41.564;23.296;2023-06-14T05:30:12;9.15;;;5.10;;
21868;SDS011;11099;41.564;23.296;2023-06-14T05:32:39;9.57;;;5.65;;
21868;SDS011;11099;41.564;23.296;2023-06-14T05:35:05;9.93;;;5.78;;
21868;SDS011;11099;41.564;23.296;2023-06-14T05:37:31;7.90;;;5.43;;
21868;SDS011;11099;41.564;23.296;2023-06-14T05:39:57;5.82;;;5.43;;
21868;SDS011;11099;41.564;23.296;2023-06-14T05:42:22;9.00;;;5.57;;
21868;SDS011;11099;41.564;23.296;2023-06-14T05:44:48;7.38;;;6.43;;
21868;SDS011;11099;41.564;23.296;2023-06-14T05:47:14;6.97;;;6.35;;
21868;SDS011;11099;41.564;23.296;2023-06-14T05:49:39;7.10;;;6.40;;
21868;SDS011;11099;41.564;23.296;2023-06-14T05:52:05;6.55;;;5.75;;
21868;SDS011;11099;41.564;23.296;2023-06-14T05:54:32;6.30;;;5.60;;
21868;SDS011;11099;41.564;23.296;2023-06-14T05:56:57;8.68;;;5.00;;
21868;SDS011;11099;41.564;23.296;2023-06-14T05:59:29;5.97;;;4.90;;
21868;SDS011;11099;41.564;23.296;2023-06-14T06:01:54;4.85;;;4.45;;
21868;SDS011;11099;41.564;23.296;2023-06-14T06:04:20;4.45;;;4.15;;
21868;SDS011;11099;41.564;23.296;2023-06-14T06:06:46;6.65;;;5.45;;
21868;SDS011;11099;41.564;23.296;2023-06-14T06:09:12;6.05;;;5.47;;
21868;SDS011;11099;41.564;23.296;2023-06-14T06:11:39;5.82;;;5.35;;
21868;SDS011;11099;41.564;23.296;2023-06-14T06:14:05;7.43;;;5.18;;
21868;SDS011;11099;41.564;23.296;2023-06-14T06:16:30;5.28;;;4.88;;
21868;SDS011;11099;41.564;23.296;2023-06-14T06:18:56;6.80;;;4.93;;
21868;SDS011;11099;41.564;23.296;2023-06-14T06:21:21;5.60;;;4.97;;
21868;SDS011;11099;41.564;23.296;2023-06-14T06:23:47;5.53;;;5.00;;
21868;SDS011;11099;41.564;23.296;2023-06-14T06:26:12;5.38;;;4.78;;
21868;SDS011;11099;41.564;23.296;2023-06-14T06:28:38;6.85;;;5.18;;
21868;SDS011;11099;41.564;23.296;2023-06-14T06:31:03;9.85;;;5.15;;
21868;SDS011;11099;41.564;23.296;2023-06-14T06:33:29;34.35;;;7.03;;
21868;SDS011;11099;41.564;23.296;2023-06-14T06:35:54;11.52;;;6.93;;
21868;SDS011;11099;41.564;23.296;2023-06-14T06:38:20;6.18;;;5.55;;
21868;SDS011;11099;41.564;23.296;2023-06-14T06:40:45;62.53;;;10.32;;
21868;SDS011;11099;41.564;23.296;2023-06-14T06:43:11;5.93;;;5.43;;
21868;SDS011;11099;41.564;23.296;2023-06-14T06:45:41;11.77;;;5.57;;
21868;SDS011;11099;41.564;23.296;2023-06-14T06:48:07;6.35;;;5.70;;
21868;SDS011;11099;41.564;23.296;2023-06-14T06:50:34;5.45;;;5.05;;
21868;SDS011;11099;41.564;23.296;2023-06-14T06:53:00;6.28;;;5.07;;
21868;SDS011;11099;41.564;23.296;2023-06-14T06:55:25;5.68;;;5.20;;
21868;SDS011;11099;41.564;23.296;2023-06-14T06:57:51;6.30;;;5.60;;
21868;SDS011;11099;41.564;23.296;2023-06-14T07:00:17;5.75;;;5.03;;
21868;SDS011;11099;41.564;23.296;2023-06-14T07:02:43;6.28;;;4.80;;
21868;SDS011;11099;41.564;23.296;2023-06-14T07:05:09;9.27;;;5.32;;
21868;SDS011;11099;41.564;23.296;2023-06-14T07:07:34;15.30;;;12.02;;
21868;SDS011;11099;41.564;23.296;2023-06-14T07:10:00;4.60;;;4.13;;
21868;SDS011;11099;41.564;23.296;2023-06-14T07:12:26;5.10;;;4.22;;
21868;SDS011;11099;41.564;23.296;2023-06-14T07:14:52;5.68;;;4.82;;
21868;SDS011;11099;41.564;23.296;2023-06-14T07:17:17;9.90;;;4.38;;
21868;SDS011;11099;41.564;23.296;2023-06-14T07:19:43;5.43;;;4.60;;
21868;SDS011;11099;41.564;23.296;2023-06-14T07:22:08;8.02;;;4.93;;
21868;SDS011;11099;41.564;23.296;2023-06-14T07:24:34;7.72;;;4.80;;
21868;SDS011;11099;41.564;23.296;2023-06-14T07:27:01;5.68;;;5.10;;
21868;SDS011;11099;41.564;23.296;2023-06-14T07:29:28;6.38;;;5.10;;
21868;SDS011;11099;41.564;23.296;2023-06-14T07:31:53;6.72;;;4.80;;
21868;SDS011;11099;41.564;23.296;2023-06-14T07:34:19;4.45;;;4.05;;
21868;SDS011;11099;41.564;23.296;2023-06-14T07:36:44;5.38;;;4.88;;
21868;SDS011;11099;41.564;23.296;2023-06-14T07:39:10;6.15;;;4.50;;
21868;SDS011;11099;41.564;23.296;2023-06-14T07:41:35;4.95;;;4.30;;
21868;SDS011;11099;41.564;23.296;2023-06-14T07:44:01;7.43;;;5.32;;
21868;SDS011;11099;41.564;23.296;2023-06-14T07:46:26;6.05;;;5.45;;
21868;SDS011;11099;41.564;23.296;2023-06-14T07:48:52;7.95;;;4.53;;
21868;SDS011;11099;41.564;23.296;2023-06-14T07:51:17;6.72;;;4.93;;
21868;SDS011;11099;41.564;23.296;2023-06-14T07:53:43;5.75;;;4.75;;
21868;SDS011;11099;41.564;23.296;2023-06-14T07:56:08;5.82;;;5.07;;
21868;SDS011;11099;41.564;23.296;2023-06-14T07:58:34;5.40;;;5.00;;
21868;SDS011;11099;41.564;23.296;2023-06-14T08:00:59;4.90;;;4.50;;
21868;SDS011;11099;41.564;23.296;2023-06-14T08:03:26;5.90;;;4.50;;
21868;SDS011;11099;41.564;23.296;2023-06-14T08:05:52;5.47;;;4.00;;
21868;SDS011;11099;41.564;23.296;2023-06-14T08:08:17;6.22;;;4.78;;
21868;SDS011;11099;41.564;23.296;2023-06-14T08:10:43;4.45;;;4.07;;
21868;SDS011;11099;41.564;23.296;2023-06-14T08:13:09;4.10;;;3.80;;
21868;SDS011;11099;41.564;23.296;2023-06-14T08:15:35;4.47;;;3.70;;
21868;SDS011;11099;41.564;23.296;2023-06-14T08:18:01;6.15;;;4.32;;
21868;SDS011;11099;41.564;23.296;2023-06-14T08:20:28;4.97;;;4.47;;
21868;SDS011;11099;41.564;23.296;2023-06-14T08:22:55;4.15;;;3.75;;
21868;SDS011;11099;41.564;23.296;2023-06-14T08:25:21;6.25;;;4.22;;
21868;SDS011;11099;41.564;23.296;2023-06-14T08:27:47;4.43;;;4.03;;
21868;SDS011;11099;41.564;23.296;2023-06-14T08:30:13;3.85;;;3.42;;
21868;SDS011;11099;41.564;23.296;2023-06-14T08:32:39;4.30;;;3.90;;
21868;SDS011;11099;41.564;23.296;2023-06-14T08:35:06;6.45;;;4.43;;
21868;SDS011;11099;41.564;23.296;2023-06-14T08:37:32;4.57;;;4.25;;
21868;SDS011;11099;41.564;23.296;2023-06-14T08:39:58;6.53;;;3.85;;
21868;SDS011;11099;41.564;23.296;2023-06-14T08:42:24;8.07;;;4.63;;
21868;SDS011;11099;41.564;23.296;2023-06-14T08:44:50;4.88;;;4.32;;
21868;SDS011;11099;41.564;23.296;2023-06-14T08:47:16;4.70;;;4.25;;
21868;SDS011;11099;41.564;23.296;2023-06-14T08:49:46;4.45;;;3.90;;
21868;SDS011;11099;41.564;23.296;2023-06-14T08:52:13;7.57;;;4.60;;
21868;SDS011;11099;41.564;23.296;2023-06-14T08:54:45;4.75;;;4.38;;
21868;SDS011;11099;41.564;23.296;2023-06-14T08:59:43;5.43;;;4.70;;
21868;SDS011;11099;41.564;23.296;2023-06-14T09:02:14;5.13;;;4.53;;
21868;SDS011;11099;41.564;23.296;2023-06-14T09:04:43;11.38;;;5.15;;
21868;SDS011;11099;41.564;23.296;2023-06-14T09:07:10;5.15;;;4.72;;
21868;SDS011;11099;41.564;23.296;2023-06-14T09:09:38;5.57;;;5.00;;
21868;SDS011;11099;41.564;23.296;2023-06-14T09:12:06;5.35;;;4.70;;
21868;SDS011;11099;41.564;23.296;2023-06-14T09:14:36;5.40;;;4.65;;
21868;SDS011;11099;41.564;23.296;2023-06-14T09:17:05;6.45;;;4.10;;
21868;SDS011;11099;41.564;23.296;2023-06-14T09:19:30;7.05;;;5.28;;
21868;SDS011;11099;41.564;23.296;2023-06-14T09:21:56;4.90;;;4.55;;
21868;SDS011;11099;41.564;23.296;2023-06-14T09:24:23;4.63;;;4.18;;
21868;SDS011;11099;41.564;23.296;2023-06-14T09:26:50;6.53;;;4.53;;
21868;SDS011;11099;41.564;23.296;2023-06-14T09:29:16;4.68;;;4.28;;
21868;SDS011;11099;41.564;23.296;2023-06-14T09:31:42;4.65;;;4.35;;
21868;SDS011;11099;41.564;23.296;2023-06-14T09:34:09;6.57;;;4.90;;
21868;SDS011;11099;41.564;23.296;2023-06-14T09:36:34;4.30;;;3.75;;
21868;SDS011;11099;41.564;23.296;2023-06-14T09:39:02;6.20;;;4.53;;
21868;SDS011;11099;41.564;23.296;2023-06-14T09:41:33;5.90;;;3.88;;
21868;SDS011;11099;41.564;23.296;2023-06-14T09:44:04;6.75;;;4.72;;
21868;SDS011;11099;41.564;23.296;2023-06-14T09:46:31;5.63;;;4.45;;
21868;SDS011;11099;41.564;23.296;2023-06-14T09:49:00;5.22;;;4.72;;
21868;SDS011;11099;41.564;23.296;2023-06-14T09:51:27;7.97;;;4.32;;
21868;SDS011;11099;41.564;23.296;2023-06-14T09:53:58;5.20;;;4.70;;
21868;SDS011;11099;41.564;23.296;2023-06-14T09:56:29;5.13;;;4.72;;
21868;SDS011;11099;41.564;23.296;2023-06-14T09:58:57;10.02;;;4.70;;
21868;SDS011;11099;41.564;23.296;2023-06-14T10:01:24;6.85;;;4.40;;
21868;SDS011;11099;41.564;23.296;2023-06-14T10:04:13;12.05;;;4.78;;
21868;SDS011;11099;41.564;23.296;2023-06-14T10:06:43;4.95;;;4.32;;
21868;SDS011;11099;41.564;23.296;2023-06-14T10:09:10;5.28;;;4.57;;
21868;SDS011;11099;41.564;23.296;2023-06-14T10:11:37;8.55;;;4.57;;
21868;SDS011;11099;41.564;23.296;2023-06-14T10:14:11;7.85;;;4.88;;
21868;SDS011;11099;41.564;23.296;2023-06-14T10:19:25;5.43;;;5.07;;
21868;SDS011;11099;41.564;23.296;2023-06-14T10:24:44;5.65;;;5.10;;
21868;SDS011;11099;41.564;23.296;2023-06-14T10:27:13;5.95;;;4.55;;
21868;SDS011;11099;41.564;23.296;2023-06-14T10:32:24;6.95;;;5.28;;
21868;SDS011;11099;41.564;23.296;2023-06-14T10:34:57;5.53;;;5.03;;
21868;SDS011;11099;41.564;23.296;2023-06-14T10:37:23;8.32;;;5.18;;
21868;SDS011;11099;41.564;23.296;2023-06-14T10:39:49;5.70;;;5.20;;
21868;SDS011;11099;41.564;23.296;2023-06-14T10:42:15;5.28;;;4.85;;
21868;SDS011;11099;41.564;23.296;2023-06-14T10:44:50;5.10;;;4.78;;
21868;SDS011;11099;41.564;23.296;2023-06-14T10:49:49;7.53;;;4.95;;
21868;SDS011;11099;41.564;23.296;2023-06-14T10:52:39;5.22;;;4.82;;
21868;SDS011;11099;41.564;23.296;2023-06-14T10:55:18;14.45;;;6.00;;
21868;SDS011;11099;41.564;23.296;2023-06-14T10:57:50;9.30;;;5.57;;
21868;SDS011;11099;41.564;23.296;2023-06-14T11:00:24;5.65;;;5.18;;
21868;SDS011;11099;41.564;23.296;2023-06-14T11:05:54;5.57;;;5.22;;
21868;SDS011;11099;41.564;23.296;2023-06-14T11:10:48;20.35;;;9.55;;
21868;SDS011;11099;41.564;23.296;2023-06-14T11:13:16;14.85;;;7.65;;
21868;SDS011;11099;41.564;23.296;2023-06-14T11:15:45;12.77;;;7.90;;
21868;SDS011;11099;41.564;23.296;2023-06-14T11:18:13;5.30;;;4.90;;
21868;SDS011;11099;41.564;23.296;2023-06-14T11:20:39;8.00;;;5.10;;
21868;SDS011;11099;41.564;23.296;2023-06-14T11:23:05;5.93;;;5.38;;
21868;SDS011;11099;41.564;23.296;2023-06-14T11:25:31;7.57;;;6.47;;
21868;SDS011;11099;41.564;23.296;2023-06-14T11:27:57;10.88;;;8.32;;
21868;SDS011;11099;41.564;23.296;2023-06-14T11:32:59;9.98;;;8.98;;
21868;SDS011;11099;41.564;23.296;2023-06-14T11:35:25;9.23;;;7.68;;
21868;SDS011;11099;41.564;23.296;2023-06-14T11:37:57;9.82;;;8.40;;
21868;SDS011;11099;41.564;23.296;2023-06-14T11:40:24;9.35;;;8.35;;
21868;SDS011;11099;41.564;23.296;2023-06-14T11:42:54;8.43;;;7.72;;
21868;SDS011;11099;41.564;23.296;2023-06-14T11:45:24;11.25;;;9.45;;
21868;SDS011;11099;41.564;23.296;2023-06-14T11:47:50;8.57;;;7.60;;
21868;SDS011;11099;41.564;23.296;2023-06-14T11:50:16;8.88;;;7.97;;
21868;SDS011;11099;41.564;23.296;2023-06-14T11:52:42;9.60;;;8.68;;
21868;SDS011;11099;41.564;23.296;2023-06-14T11:55:08;8.57;;;7.43;;
21868;SDS011;11099;41.564;23.296;2023-06-14T11:57:34;8.35;;;7.65;;
21868;SDS011;11099;41.564;23.296;2023-06-14T12:00:04;8.18;;;7.57;;
21868;SDS011;11099;41.564;23.296;2023-06-14T12:02:40;7.30;;;6.70;;
21868;SDS011;11099;41.564;23.296;2023-06-14T12:05:06;6.75;;;6.03;;
21868;SDS011;11099;41.564;23.296;2023-06-14T12:12:28;6.38;;;5.85;;
21868;SDS011;11099;41.564;23.296;2023-06-14T12:14:57;6.00;;;5.60;;
21868;SDS011;11099;41.564;23.296;2023-06-14T12:17:23;6.13;;;5.53;;
21868;SDS011;11099;41.564;23.296;2023-06-14T12:19:49;6.68;;;6.15;;
21868;SDS011;11099;41.564;23.296;2023-06-14T12:22:16;7.20;;;6.28;;
21868;SDS011;11099;41.564;23.296;2023-06-14T12:27:25;4.70;;;4.40;;
21868;SDS011;11099;41.564;23.296;2023-06-14T12:30:04;5.50;;;5.10;;
21868;SDS011;11099;41.564;23.296;2023-06-14T12:32:42;5.40;;;4.93;;
21868;SDS011;11099;41.564;23.296;2023-06-14T12:35:11;4.47;;;4.18;;
21868;SDS011;11099;41.564;23.296;2023-06-14T12:37:39;7.55;;;5.13;;
21868;SDS011;11099;41.564;23.296;2023-06-14T12:40:07;5.30;;;5.00;;
21868;SDS011;11099;41.564;23.296;2023-06-14T12:42:42;5.28;;;4.90;;
21868;SDS011;11099;41.564;23.296;2023-06-14T12:45:13;4.93;;;4.65;;
21868;SDS011;11099;41.564;23.296;2023-06-14T12:47:43;4.82;;;4.38;;
21868;SDS011;11099;41.564;23.296;2023-06-14T12:50:13;5.15;;;4.75;;
21868;SDS011;11099;41.564;23.296;2023-06-14T12:52:40;5.30;;;4.88;;
21868;SDS011;11099;41.564;23.296;2023-06-14T12:55:16;4.60;;;4.30;;
21868;SDS011;11099;41.564;23.296;2023-06-14T12:57:46;6.10;;;4.10;;
21868;SDS011;11099;41.564;23.296;2023-06-14T13:00:17;8.10;;;4.43;;
21868;SDS011;11099;41.564;23.296;2023-06-14T13:02:46;5.38;;;4.88;;
21868;SDS011;11099;41.564;23.296;2023-06-14T13:05:18;4.97;;;4.68;;
21868;SDS011;11099;41.564;23.296;2023-06-14T13:10:27;4.65;;;4.35;;
21868;SDS011;11099;41.564;23.296;2023-06-14T13:12:55;5.13;;;4.75;;
21868;SDS011;11099;41.564;23.296;2023-06-14T13:15:23;9.23;;;4.75;;
21868;SDS011;11099;41.564;23.296;2023-06-14T13:17:48;5.13;;;4.82;;
21868;SDS011;11099;41.564;23.296;2023-06-14T13:20:14;4.93;;;4.63;;
21868;SDS011;11099;41.564;23.296;2023-06-14T13:22:41;6.20;;;5.03;;
21868;SDS011;11099;41.564;23.296;2023-06-14T13:25:07;4.85;;;4.40;;
21868;SDS011;11099;41.564;23.296;2023-06-14T13:27:33;3.90;;;3.60;;
21868;SDS011;11099;41.564;23.296;2023-06-14T13:29:58;4.70;;;3.97;;
21868;SDS011;11099;41.564;23.296;2023-06-14T13:32:24;3.90;;;3.60;;
21868;SDS011;11099;41.564;23.296;2023-06-14T13:34:50;3.80;;;3.50;;
21868;SDS011;11099;41.564;23.296;2023-06-14T13:37:15;3.60;;;3.40;;
21868;SDS011;11099;41.564;23.296;2023-06-14T13:39:41;3.80;;;3.30;;
21868;SDS011;11099;41.564;23.296;2023-06-14T13:42:07;3.50;;;3.20;;
21868;SDS011;11099;41.564;23.296;2023-06-14T13:44:32;5.45;;;4.10;;
21868;SDS011;11099;41.564;23.296;2023-06-14T13:46:58;4.13;;;3.83;;
21868;SDS011;11099;41.564;23.296;2023-06-14T13:49:23;4.72;;;4.03;;
21868;SDS011;11099;41.564;23.296;2023-06-14T13:51:49;5.03;;;4.00;;
21868;SDS011;11099;41.564;23.296;2023-06-14T13:54:14;5.50;;;3.70;;
21868;SDS011;11099;41.564;23.296;2023-06-14T13:56:40;4.18;;;3.78;;
21868;SDS011;11099;41.564;23.296;2023-06-14T13:59:06;4.88;;;3.78;;
21868;SDS011;11099;41.564;23.296;2023-06-14T14:01:32;5.60;;;4.50;;
21868;SDS011;11099;41.564;23.296;2023-06-14T14:03:58;6.50;;;4.70;;
21868;SDS011;11099;41.564;23.296;2023-06-14T14:06:25;7.07;;;4.55;;
21868;SDS011;11099;41.564;23.296;2023-06-14T14:08:51;3.72;;;3.53;;
21868;SDS011;11099;41.564;23.296;2023-06-14T14:11:18;3.45;;;3.20;;
21868;SDS011;11099;41.564;23.296;2023-06-14T14:13:44;5.97;;;3.58;;
21868;SDS011;11099;41.564;23.296;2023-06-14T14:16:09;3.15;;;2.80;;
21868;SDS011;11099;41.564;23.296;2023-06-14T14:18:35;3.60;;;3.30;;
21868;SDS011;11099;41.564;23.296;2023-06-14T14:21:02;6.35;;;4.32;;
21868;SDS011;11099;41.564;23.296;2023-06-14T14:23:27;4.90;;;4.47;;
21868;SDS011;11099;41.564;23.296;2023-06-14T14:25:53;6.05;;;5.15;;
21868;SDS011;11099;41.564;23.296;2023-06-14T14:28:18;6.45;;;5.65;;
21868;SDS011;11099;41.564;23.296;2023-06-14T14:30:45;5.05;;;3.70;;
21868;SDS011;11099;41.564;23.296;2023-06-14T14:33:12;6.05;;;5.03;;
21868;SDS011;11099;41.564;23.296;2023-06-14T14:35:45;8.48;;;5.38;;
21868;SDS011;11099;41.564;23.296;2023-06-14T14:38:13;6.13;;;5.53;;
21868;SDS011;11099;41.564;23.296;2023-06-14T14:40:40;5.60;;;5.10;;
21868;SDS011;11099;41.564;23.296;2023-06-14T14:43:06;6.00;;;5.45;;
21868;SDS011;11099;41.564;23.296;2023-06-14T14:45:31;5.45;;;4.05;;
21868;SDS011;11099;41.564;23.296;2023-06-14T14:47:57;4.57;;;3.58;;
21868;SDS011;11099;41.564;23.296;2023-06-14T14:50:23;5.45;;;3.67;;
21868;SDS011;11099;41.564;23.296;2023-06-14T14:52:49;4.45;;;3.28;;
21868;SDS011;11099;41.564;23.296;2023-06-14T14:55:15;4.15;;;3.40;;
21868;SDS011;11099;41.564;23.296;2023-06-14T14:57:41;3.10;;;2.90;;
21868;SDS011;11099;41.564;23.296;2023-06-14T15:00:06;3.42;;;3.08;;
21868;SDS011;11099;41.564;23.296;2023-06-14T15:02:33;4.88;;;3.50;;
21868;SDS011;11099;41.564;23.296;2023-06-14T15:04:58;3.67;;;3.33;;
21868;SDS011;11099;41.564;23.296;2023-06-14T15:07:30;6.78;;;3.30;;
21868;SDS011;11099;41.564;23.296;2023-06-14T15:09:56;3.13;;;2.92;;
21868;SDS011;11099;41.564;23.296;2023-06-14T15:12:22;3.60;;;3.20;;
21868;SDS011;11099;41.564;23.296;2023-06-14T15:14:51;5.75;;;3.15;;